Minneapolis, MN

6:42 AM CST on February 14, 2016 (GMT -0600)
North Loop | | Change Station
CLOSE
Current Station
Personal Weather Station
Location: Minneapolis, MN
Elevation: 823 ft
Nearby Weather Stations

Elev 823 ft 44.99 °N, 93.28 °W | Updated 9 seconds ago

Overcast
Overcast
13.3 °F
Feels Like 13 °F
N
0.0
Wind Variable Wind from NNE
Gusts 0.0 mph

Today
High -- | Low -- °F
--% Chance of Precip.
Yesterday
High -- | Low -- °F
Precip. -- in
Pressure 30.16 in
Visibility 10.0 miles
Clouds Few 3900 ft
Overcast 6000 ft
Windchill 13 °F
Dew Point -2 °F
Humidity 51%
Rainfall 0.00 in
Snow Depth Not available.
7:16 AM 5:39 PM
Waxing Crescent, 41% visible
METAR KMIC 141153Z AUTO 13009KT 10SM FEW039 OVC060 M11/M18 A3010 RMK AO2 SNB31E41 SLP212 P0000 60000 T11111178 11111 21128 56030 TSNO
Pressure 30.16 in
Visibility 10.0 miles
Clouds Few 3900 ft
Overcast 6000 ft
Windchill 13 °F
Dew Point -2 °F
Humidity 51%
Rainfall 0.00 in
Snow Depth Not available.
7:16 AM 5:39 PM
Waxing Crescent, 41% visible
METAR KMIC 141153Z AUTO 13009KT 10SM FEW039 OVC060 M11/M18 A3010 RMK AO2 SNB31E41 SLP212 P0000 60000 T11111178 11111 21128 56030 TSNO

10-Day Weather Forecast

Almanac

Astronomy

Feb. 14, 2016 Rise Set
Actual Time
Civil Twilight
Nautical Twilight
Astronomical Twilight
Moon
Length of Visible Light
Length of Day
Tomorrow will be .
, % of the Moon is Illuminated

Today's Extremes

State Highs State Lows

Community

WunderPhotos

Upload Photos

1,892,775 photos uploaded!

WunderBlog® & News

Nearby

Air Quality

  Air Quality AQ Index Pollutant
Not available.

Snow Depth

Station Depth Elevation

Earthquake Activity

City Distance Mag. Time & Date
Minimum magnitude displayed is 2.5.

Coastal Water Temperatures

Place Temperature

Stations

Nearby Weather Stations

Station Location Temp. Windchill Dew Point Humidity Wind Precip. Elev Updated Type
                   

Watches & Warnings

There are currently no watches in effect.